Time;durP1;ratioP1;P1;durP2;ratioP2;P2;SDS_P1;SDS_P2;PMS_P1;PMS_P2;Temp;Humidity;BMP_temperature;BMP_pressure;BME280_temperature;BME280_humidity;BME280_pressure;Samples;Min_cycle;Max_cycle;Signal;HPM_P1;HPM_P2
2021/06/17 00:00:23;;;;;;;21.90;16.70;;;;;;;;;;5053896;28;20516;-63
2021/06/17 00:02:49;;;;;;;21.73;16.73;;;;;;;;;;5053944;28;20496;-64
2021/06/17 00:05:17;;;;;;;21.80;15.65;;;;;;;;;;5071594;28;20036;-63
2021/06/17 00:07:43;;;;;;;26.73;19.17;;;;;;;;;;5071680;28;20029;-64
2021/06/17 00:10:22;;;;;;;22.05;14.93;;;;;;;;;;5071634;28;20259;-64
2021/06/17 00:12:48;;;;;;;23.20;15.45;;;;;;;;;;5071579;28;20032;-63
2021/06/17 00:15:16;;;;;;;24.52;17.08;;;;;;;;;;5053494;28;20082;-64
2021/06/17 00:17:43;;;;;;;21.50;15.60;;;;;;;;;;5070877;28;20035;-64
2021/06/17 00:20:09;;;;;;;26.85;18.27;;;;;;;;;;5070859;28;20028;-64
2021/06/17 00:22:35;;;;;;;24.23;17.35;;;;;;;;;;5088612;28;20028;-63
2021/06/17 00:25:01;;;;;;;21.50;14.52;;;;;;;;;;5074346;28;20028;-64
2021/06/17 00:27:27;;;;;;;27.10;22.20;;;;;;;;;;5074264;28;20056;-64
2021/06/17 00:29:54;;;;;;;20.88;14.73;;;;;;;;;;5074661;28;20093;-63
2021/06/17 00:32:20;;;;;;;26.55;20.75;;;;;;;;;;5092666;28;20028;-63
2021/06/17 00:34:46;;;;;;;19.40;14.57;;;;;;;;;;5092435;28;20507;-62
2021/06/17 00:37:12;;;;;;;22.83;14.98;;;;;;;;;;5093338;28;20032;-65
2021/06/17 00:39:40;;;;;;;26.60;22.08;;;;;;;;;;5075888;28;20483;-63
2021/06/17 00:42:06;;;;;;;20.98;14.65;;;;;;;;;;5094188;28;20078;-65
2021/06/17 00:44:32;;;;;;;21.48;14.73;;;;;;;;;;5075777;28;20031;-63
2021/06/17 00:46:58;;;;;;;27.17;14.35;;;;;;;;;;5094212;28;20034;-64
2021/06/17 00:49:24;;;;;;;19.42;14.43;;;;;;;;;;5094057;28;20081;-62
2021/06/17 00:51:50;;;;;;;20.25;14.40;;;;;;;;;;5094041;28;20456;-63
2021/06/17 00:54:31;;;;;;;21.17;15.10;;;;;;;;;;5094159;28;20028;-62
2021/06/17 00:56:58;;;;;;;29.02;19.65;;;;;;;;;;5075934;28;20032;-62
2021/06/17 00:59:24;;;;;;;21.75;14.50;;;;;;;;;;5094116;28;20024;-64
2021/06/17 01:01:50;;;;;;;23.13;17.23;;;;;;;;;;5075702;28;20016;-63
2021/06/17 01:04:16;;;;;;;22.15;14.88;;;;;;;;;;5075437;28;20069;-63
2021/06/17 01:06:42;;;;;;;20.88;16.33;;;;;;;;;;5093783;28;20065;-64
2021/06/17 01:09:13;;;;;;;22.88;15.50;;;;;;;;;;5093793;28;20488;-65
2021/06/17 01:11:39;;;;;;;22.02;14.80;;;;;;;;;;5075702;28;20032;-64
2021/06/17 01:14:07;;;;;;;21.95;14.43;;;;;;;;;;5093646;28;20046;-64
2021/06/17 01:16:48;;;;;;;22.50;15.60;;;;;;;;;;5075551;28;20511;-63
2021/06/17 01:19:32;;;;;;;21.35;14.82;;;;;;;;;;5075663;28;20024;-64
2021/06/17 01:21:58;;;;;;;20.90;14.82;;;;;;;;;;5093464;28;20024;-63
2021/06/17 01:24:42;;;;;;;26.15;18.40;;;;;;;;;;5093339;28;20028;-63
2021/06/17 01:27:08;;;;;;;20.42;14.73;;;;;;;;;;5093735;28;20162;-64
2021/06/17 01:29:36;;;;;;;20.83;14.40;;;;;;;;;;5093405;28;20028;-63
2021/06/17 01:32:03;;;;;;;20.33;14.13;;;;;;;;;;5093234;28;20027;-63
2021/06/17 01:34:30;;;;;;;26.92;21.08;;;;;;;;;;5093052;28;20024;-64
2021/06/17 01:37:03;;;;;;;24.58;17.73;;;;;;;;;;5074988;28;20024;-64
2021/06/17 01:39:30;;;;;;;23.30;14.85;;;;;;;;;;5093078;28;20039;-64
2021/06/17 01:41:57;;;;;;;21.77;15.98;;;;;;;;;;5074958;28;20024;-63
2021/06/17 01:44:24;;;;;;;28.25;21.10;;;;;;;;;;5092709;28;20028;-64
2021/06/17 01:46:50;;;;;;;21.48;14.48;;;;;;;;;;5093154;28;20028;-61
2021/06/17 01:49:17;;;;;;;21.40;14.45;;;;;;;;;;5074870;28;20127;-63
2021/06/17 01:51:44;;;;;;;33.63;19.10;;;;;;;;;;5073974;28;20035;-63
2021/06/17 01:54:20;;;;;;;25.50;16.20;;;;;;;;;;5074793;28;20142;-64
2021/06/17 01:56:47;;;;;;;19.90;14.10;;;;;;;;;;5092813;28;20484;-63
2021/06/17 01:59:13;;;;;;;23.70;17.25;;;;;;;;;;5093220;28;20035;-63
2021/06/17 02:01:39;;;;;;;21.95;14.57;;;;;;;;;;5074526;28;20020;-63
2021/06/17 02:04:06;;;;;;;23.67;15.00;;;;;;;;;;5092675;28;20024;-63
2021/06/17 02:06:33;;;;;;;23.60;15.85;;;;;;;;;;5074406;28;20028;-63
2021/06/17 02:09:00;;;;;;;24.88;16.92;;;;;;;;;;5074465;28;20491;-63
2021/06/17 02:11:27;;;;;;;23.85;15.73;;;;;;;;;;5074340;28;20031;-63
2021/06/17 02:13:54;;;;;;;25.55;19.10;;;;;;;;;;5074190;28;20039;-63
2021/06/17 02:16:21;;;;;;;23.75;15.60;;;;;;;;;;5074133;28;20024;-62
2021/06/17 02:18:48;;;;;;;23.58;17.58;;;;;;;;;;5092374;28;20020;-63
2021/06/17 02:21:15;;;;;;;22.50;14.88;;;;;;;;;;5074466;28;20044;-63
2021/06/17 02:23:44;;;;;;;21.67;15.77;;;23.60;99.90;;;;;;5074004;28;20063;-63
2021/06/17 02:26:11;;;;;;;21.50;14.05;;;20.70;99.90;;;;;;5092362;28;20368;-63
2021/06/17 02:28:42;;;;;;;22.10;15.60;;;20.50;99.90;;;;;;5092535;28;20016;-63
2021/06/17 02:31:12;;;;;;;21.65;14.95;;;20.40;99.90;;;;;;5092378;28;20036;-63
2021/06/17 02:33:38;;;;;;;23.77;16.67;;;20.40;99.90;;;;;;5092172;28;20109;-63
2021/06/17 02:36:06;;;;;;;23.10;14.32;;;20.40;99.90;;;;;;5092074;28;20020;-63
2021/06/17 02:38:35;;;;;;;20.77;14.65;;;20.30;99.90;;;;;;5074102;28;20105;-63
2021/06/17 02:41:04;;;;;;;23.17;15.20;;;20.30;99.90;;;;;;5074114;28;20031;-63
2021/06/17 02:43:34;;;;;;;27.63;16.15;;;20.30;99.90;;;;;;5092750;28;20035;-64
2021/06/17 02:46:00;;;;;;;21.75;14.52;;;20.30;99.90;;;;;;5093013;28;20103;-63
2021/06/17 02:48:26;;;;;;;23.67;15.07;;;20.20;99.90;;;;;;5092152;28;20024;-62
2021/06/17 02:50:52;;;;;;;23.58;15.98;;;20.20;99.90;;;;;;5092225;28;20107;-63
2021/06/17 02:53:18;;;;;;;23.52;15.55;;;20.20;99.90;;;;;;5073653;28;20387;-63
2021/06/17 02:55:44;;;;;;;22.92;15.27;;;20.20;99.90;;;;;;5091803;28;20165;-63
2021/06/17 02:58:17;;;;;;;22.55;15.88;;;20.10;99.90;;;;;;5073973;28;20570;-64
2021/06/17 03:01:09;;;;;;;22.50;16.10;;;20.10;99.90;;;;;;5092201;28;20490;-64
2021/06/17 03:03:52;;;;;;;24.58;15.32;;;20.10;99.90;;;;;;5093485;28;20020;-65
2021/06/17 03:06:38;;;;;;;23.80;15.77;;;20.10;99.90;;;;;;5096338;28;20098;-62
2021/06/17 03:09:08;;;;;;;22.00;15.68;;;20.10;99.90;;;;;;5078063;28;20051;-64
2021/06/17 03:11:36;;;;;;;24.20;16.33;;;20.00;99.90;;;;;;5096100;28;20028;-65
2021/06/17 03:14:12;;;;;;;23.50;15.90;;;20.00;99.90;;;;;;5077520;28;20032;-62
2021/06/17 03:16:39;;;;;;;21.90;14.75;;;20.00;99.90;;;;;;5095795;28;20027;-62
2021/06/17 03:19:07;;;;;;;24.45;16.25;;;20.00;99.90;;;;;;5095893;28;20032;-62
2021/06/17 03:21:35;;;;;;;22.27;16.17;;;;;;;;;;5060793;28;20059;-63
2021/06/17 03:24:02;;;;;;;21.20;15.63;;;;;;;;;;5061053;28;20039;-62
2021/06/17 03:26:29;;;;;;;24.45;15.93;;;;;;;;;;5095850;28;20083;-63
2021/06/17 03:28:56;;;;;;;25.95;15.90;;;;;;;;;;5077449;28;20479;-63
2021/06/17 03:31:22;;;;;;;25.98;15.32;;;;;;;;;;5095634;28;20108;-63
2021/06/17 03:33:50;;;;;;;26.98;15.60;;;;;;;;;;5077352;28;20056;-62
2021/06/17 03:36:17;;;;;;;25.42;16.20;;;;;;;;;;5095619;28;20047;-63
2021/06/17 03:38:44;;;;;;;25.40;16.42;;;;;;;;;;5095530;28;20028;-63
2021/06/17 03:41:10;;;;;;;24.27;16.00;;;;;;;;;;5095510;28;20020;-62
2021/06/17 03:43:37;;;;;;;21.85;15.93;;;;;;;;;;5095376;28;20024;-62
2021/06/17 03:46:03;;;;;;;24.33;16.67;;;;;;;;;;5094835;28;20059;-63
2021/06/17 03:48:30;;;;;;;24.00;15.35;;;;;;;;;;5095115;28;20046;-62
2021/06/17 03:50:56;;;;;;;21.77;15.32;;;;;;;;;;5094949;28;20020;-63
2021/06/17 03:53:23;;;;;;;25.73;16.85;;;;;;;;;;5076624;28;20089;-62
2021/06/17 03:55:52;;;;;;;22.02;16.02;;;;;;;;;;5076871;28;20024;-63
2021/06/17 03:58:21;;;;;;;25.63;16.40;;;;;;;;;;5076931;28;20020;-62
2021/06/17 04:00:47;;;;;;;23.83;15.57;;;;;;;;;;5095137;28;20024;-63
2021/06/17 04:03:14;;;;;;;22.35;15.77;;;;;;;;;;5094938;28;20043;-64
2021/06/17 04:05:39;;;;;;;25.90;16.85;;;;;;;;;;5094732;28;20031;-64
2021/06/17 04:08:09;;;;;;;23.40;16.10;;;;;;;;;;5094820;28;20016;-63
2021/06/17 04:10:36;;;;;;;26.13;16.23;;;;;;;;;;5094903;28;20108;-62
2021/06/17 04:13:02;;;;;;;23.42;16.25;;;19.90;99.90;;;;;;5076825;28;20055;-63
2021/06/17 04:15:29;;;;;;;23.38;16.08;;;20.40;99.90;;;;;;5093450;28;20031;-64
2021/06/17 04:17:59;;;;;;;24.50;17.02;;;20.40;99.90;;;;;;5094835;28;20024;-63
2021/06/17 04:20:34;;;;;;;27.45;16.98;;;20.50;99.90;;;;;;5094725;28;20077;-63
2021/06/17 04:23:04;;;;;;;27.70;16.85;;;20.50;99.90;;;;;;5094344;28;20531;-64
2021/06/17 04:25:30;;;;;;;24.33;16.60;;;20.60;99.90;;;;;;5094324;28;20032;-63
2021/06/17 04:28:03;;;;;;;25.88;16.42;;;20.70;99.90;;;;;;5094663;28;20055;-63
2021/06/17 04:30:30;;;;;;;26.70;15.60;;;20.70;99.90;;;;;;5094516;28;20032;-63
2021/06/17 04:32:59;;;;;;;27.60;17.38;;;20.80;99.90;;;;;;5076134;28;20028;-63
2021/06/17 04:35:26;;;;;;;25.30;15.73;;;20.90;99.90;;;;;;5094273;28;20024;-65
2021/06/17 04:37:52;;;;;;;24.58;14.90;;;21.00;99.90;;;;;;5094184;28;20034;-63
2021/06/17 04:40:20;;;;;;;26.25;15.48;;;21.00;99.90;;;;;;5094196;28;20051;-65
2021/06/17 04:42:46;;;;;;;26.13;15.20;;;21.10;99.90;;;;;;5076006;28;20024;-64
2021/06/17 04:45:12;;;;;;;24.55;14.85;;;21.20;99.90;;;;;;5094100;28;20023;-65
2021/06/17 04:47:39;;;;;;;29.77;17.38;;;;;;;;;;5076112;28;20372;-64
2021/06/17 04:50:08;;;;;;;24.48;15.43;;;;;;;;;;5093810;28;20028;-64
2021/06/17 04:52:50;;;;;;;30.10;15.23;;;;;;;;;;5093706;28;20477;-63
2021/06/17 04:55:16;;;;;;;23.83;15.05;;;;;;;;;;5093589;28;20164;-64
2021/06/17 04:57:41;;;;;;;28.13;15.93;;;21.30;99.90;;;;;;5075659;28;20027;-64
2021/06/17 05:00:07;;;;;;;26.40;16.23;;;21.80;99.90;;;;;;5075532;28;20024;-63
2021/06/17 05:02:33;;;;;;;24.75;15.95;;;21.90;99.90;;;;;;5093747;28;20396;-62
2021/06/17 05:04:58;;;;;;;23.63;14.57;;;22.00;99.90;;;;;;5075557;28;20294;-63
2021/06/17 05:07:40;;;;;;;21.92;14.60;;;22.10;99.90;;;;;;5093488;28;20024;-63
2021/06/17 05:12:51;;;;;;;21.08;13.63;;;22.20;99.90;;;;;;5093962;28;20345;-64
2021/06/17 05:15:17;;;;;;;25.95;14.77;;;22.30;99.90;;;;;;5093161;28;20016;-63
2021/06/17 05:17:43;;;;;;;22.33;13.10;;;22.40;99.90;;;;;;5075574;28;20547;-64
2021/06/17 05:20:12;;;;;;;23.40;14.40;;;22.50;99.90;;;;;;5093643;28;20020;-64
2021/06/17 05:22:41;;;;;;;22.33;13.30;;;22.60;99.90;;;;;;5093572;28;20032;-64
2021/06/17 05:25:08;;;;;;;22.70;13.02;;;22.60;99.90;;;;;;5093684;28;20013;-64
2021/06/17 05:27:34;;;;;;;22.92;13.57;;;;;;;;;;5093238;28;20066;-64
2021/06/17 05:30:00;;;;;;;24.83;13.68;;;;;;;;;;5093817;28;20027;-64
2021/06/17 05:32:26;;;;;;;19.60;12.77;;;;;;;;;;5093077;28;20444;-64
2021/06/17 05:34:52;;;;;;;21.00;13.15;;;;;;;;;;5074797;28;20051;-62
2021/06/17 05:37:18;;;;;;;22.95;14.23;;;;;;;;;;5093228;28;20016;-64
2021/06/17 05:39:44;;;;;;;22.05;14.20;;;;;;;;;;5074732;28;20441;-64
2021/06/17 05:42:10;;;;;;;25.42;14.52;;;;;;;;;;5092771;28;20024;-64
2021/06/17 05:44:37;;;;;;;20.33;12.38;;;;;;;;;;5074850;28;20062;-63
2021/06/17 05:47:03;;;;;;;24.83;13.48;;;;;;;;;;5093177;28;20028;-64
2021/06/17 05:49:29;;;;;;;22.77;12.63;;;;;;;;;;5092569;28;20039;-64
2021/06/17 05:51:58;;;;;;;20.42;13.20;;;;;;;;;;5075070;28;20039;-66
2021/06/17 05:54:24;;;;;;;20.42;12.95;;;;;;;;;;5092369;28;20046;-64
2021/06/17 05:56:50;;;;;;;21.10;12.68;;;;;;;;;;5092235;28;20024;-65
2021/06/17 05:59:18;;;;;;;22.45;13.73;;;;;;;;;;5092201;28;20031;-63
2021/06/17 06:01:44;;;;;;;19.90;12.80;;;;;;;;;;5073642;28;20016;-63
2021/06/17 06:04:10;;;;;;;22.75;12.93;;;;;;;;;;5091996;28;20126;-63
2021/06/17 06:06:36;;;;;;;21.00;12.50;;;;;;;;;;5092144;28;20102;-63
2021/06/17 06:09:02;;;;;;;19.13;12.68;;;;;;;;;;5074181;28;20074;-63
2021/06/17 06:11:30;;;;;;;22.00;11.75;;;;;;;;;;5091854;28;20119;-64
2021/06/17 06:13:56;;;;;;;27.27;14.07;;;22.60;99.90;;;;;;5091769;28;20023;-63
2021/06/17 06:16:21;;;;;;;19.33;12.00;;;24.30;99.90;;;;;;5091797;28;20036;-63
2021/06/17 06:18:47;;;;;;;19.27;12.02;;;24.40;99.90;;;;;;5069693;28;20016;-63
2021/06/17 06:21:12;;;;;;;20.27;12.23;;;24.40;99.90;;;;;;5069459;28;20021;-63
2021/06/17 06:23:38;;;;;;;20.73;12.18;;;24.50;99.90;;;;;;5053613;28;20025;-62
2021/06/17 06:26:04;;;;;;;21.20;11.85;;;24.60;99.90;;;;;;5053466;28;20016;-61
2021/06/17 06:28:31;;;;;;;21.77;12.25;;;24.60;99.90;;;;;;5071150;28;20054;-62
2021/06/17 06:30:56;;;;;;;22.85;13.15;;;24.70;99.90;;;;;;5071539;28;20460;-62
2021/06/17 06:33:22;;;;;;;21.75;12.07;;;24.80;99.90;;;;;;5071656;28;20043;-62
2021/06/17 06:35:48;;;;;;;23.52;13.35;;;24.90;99.90;;;;;;5071485;28;20430;-63
2021/06/17 06:38:14;;;;;;;20.58;12.88;;;25.00;99.90;;;;;;5071189;28;20020;-62
2021/06/17 06:40:40;;;;;;;21.00;11.90;;;25.20;99.90;;;;;;5071718;28;20361;-61
2021/06/17 06:43:07;;;;;;;20.48;12.57;;;25.30;99.90;;;;;;5053502;28;20472;-62
2021/06/17 06:45:33;;;;;;;18.30;12.48;;;25.40;99.90;;;;;;5071516;28;20028;-62
2021/06/17 06:47:59;;;;;;;22.38;12.10;;;25.50;99.90;;;;;;5071463;28;20034;-63
2021/06/17 06:50:25;;;;;;;17.85;12.15;;;25.50;99.90;;;;;;5071860;28;20020;-63
2021/06/17 06:52:52;;;;;;;18.52;12.02;;;25.60;99.90;;;;;;5071232;28;20119;-62
2021/06/17 06:55:18;;;;;;;20.92;12.35;;;25.60;99.90;;;;;;5053344;28;20070;-61
2021/06/17 06:57:44;;;;;;;20.08;13.20;;;25.70;99.90;;;;;;5071597;28;20063;-63
2021/06/17 07:00:12;;;;;;;17.63;12.10;;;25.80;99.90;;;;;;5071216;28;20532;-62
2021/06/17 07:02:38;;;;;;;19.10;12.05;;;25.90;99.90;;;;;;5071490;28;20024;-63
2021/06/17 07:05:05;;;;;;;19.08;12.70;;;26.00;99.90;;;;;;5071294;28;20106;-63
2021/06/17 07:07:31;;;;;;;19.85;12.93;;;26.10;99.90;;;;;;5071188;28;20024;-62
2021/06/17 07:09:57;;;;;;;20.27;13.55;;;26.20;99.90;;;;;;5071459;28;20066;-64
2021/06/17 07:12:22;;;;;;;20.10;13.13;;;26.30;99.90;;;;;;5071251;28;20025;-63
2021/06/17 07:14:48;;;;;;;22.60;13.27;;;26.30;99.90;;;;;;5071282;28;20101;-64
2021/06/17 07:17:15;;;;;;;21.42;13.43;;;26.40;99.90;;;;;;5071329;28;20537;-63
2021/06/17 07:19:41;;;;;;;20.38;12.90;;;26.50;99.90;;;;;;5071183;28;20469;-63
2021/06/17 07:22:07;;;;;;;21.05;13.35;;;26.60;99.90;;;;;;5071026;28;20103;-64
2021/06/17 07:24:32;;;;;;;18.77;12.85;;;26.60;99.90;;;;;;5052709;28;20464;-65
2021/06/17 07:26:58;;;;;;;22.60;13.55;;;26.70;99.90;;;;;;5071089;28;20031;-63
2021/06/17 07:29:24;;;;;;;27.83;15.38;;;26.70;99.90;;;;;;5070945;28;20388;-63
2021/06/17 07:31:50;;;;;;;21.60;13.02;;;26.80;99.90;;;;;;5071043;28;20025;-64
2021/06/17 07:34:15;;;;;;;21.88;12.63;;;26.90;99.90;;;;;;5070906;28;20460;-64
2021/06/17 07:36:42;;;;;;;22.77;13.43;;;27.00;99.90;;;;;;5053274;28;20035;-64
2021/06/17 07:39:10;;;;;;;17.90;12.75;;;27.00;99.90;;;;;;5071179;28;20055;-64
2021/06/17 07:41:36;;;;;;;21.35;13.40;;;27.10;99.90;;;;;;5052954;28;20473;-64
2021/06/17 07:44:04;;;;;;;18.40;13.07;;;27.10;99.90;;;;;;5070656;28;20058;-65
2021/06/17 07:46:30;;;;;;;18.85;12.82;;;27.20;99.90;;;;;;5070572;28;20036;-63
2021/06/17 07:48:58;;;;;;;22.52;13.57;;;27.20;99.90;;;;;;5070837;28;20025;-63
2021/06/17 07:51:26;;;;;;;19.02;12.82;;;27.30;99.90;;;;;;5074664;28;20045;-64
2021/06/17 07:53:51;;;;;;;19.40;13.05;;;27.40;99.90;;;;;;5056788;28;20522;-62
2021/06/17 07:56:17;;;;;;;19.33;12.45;;;27.40;99.90;;;;;;5074480;28;20068;-62
2021/06/17 07:58:43;;;;;;;19.75;13.68;;;27.50;99.90;;;;;;5074745;28;20031;-63
2021/06/17 08:01:10;;;;;;;22.65;13.68;;;27.70;99.90;;;;;;5075226;28;20021;-64
2021/06/17 08:03:35;;;;;;;18.40;13.63;;;27.80;99.90;;;;;;5075073;28;20029;-62
2021/06/17 08:06:01;;;;;;;18.05;12.48;;;27.80;99.90;;;;;;5074520;28;20403;-69
2021/06/17 08:08:26;;;;;;;18.50;13.38;;;27.90;99.90;;;;;;5074911;28;20024;-68
2021/06/17 08:10:52;;;;;;;20.40;13.80;;;27.90;99.90;;;;;;5074605;28;20468;-69
2021/06/17 08:13:18;;;;;;;18.92;12.07;;;27.90;99.90;;;;;;5074811;28;20400;-68
2021/06/17 08:15:44;;;;;;;22.67;14.07;;;27.90;99.90;;;;;;5074204;28;20036;-69
2021/06/17 08:18:10;;;;;;;19.17;12.70;;;27.80;99.90;;;;;;5056152;28;20028;-68
2021/06/17 08:20:35;;;;;;;22.05;13.40;;;27.80;99.90;;;;;;5074369;28;20091;-69
2021/06/17 08:23:01;;;;;;;20.35;13.10;;;27.90;99.90;;;;;;5056014;28;20024;-67
2021/06/17 08:25:27;;;;;;;20.13;12.60;;;27.90;99.90;;;;;;5073834;28;20016;-66
2021/06/17 08:27:53;;;;;;;18.20;12.82;;;28.00;99.90;;;;;;5074806;28;20082;-65
2021/06/17 08:30:20;;;;;;;20.75;13.15;;;28.10;99.90;;;;;;5056150;28;20036;-61
2021/06/17 08:32:48;;;;;;;18.05;13.70;;;28.20;99.90;;;;;;5073842;28;20025;-61
2021/06/17 08:35:14;;;;;;;20.67;13.82;;;28.20;99.90;;;;;;5074044;28;20039;-61
2021/06/17 08:37:41;;;;;;;23.60;14.32;;;28.40;99.90;;;;;;5074028;28;20415;-57
2021/06/17 08:40:09;;;;;;;21.42;14.50;;;28.50;99.90;;;;;;5073540;28;20029;-59
2021/06/17 08:42:34;;;;;;;21.63;14.02;;;28.60;99.90;;;;;;5073839;28;20017;-63
2021/06/17 08:45:05;;;;;;;19.63;13.57;;;28.80;99.90;;;;;;5055671;28;20020;-63
2021/06/17 08:47:31;;;;;;;22.33;14.10;;;28.80;99.90;;;;;;5073592;28;20041;-62
2021/06/17 08:49:59;;;;;;;18.70;13.73;;;28.80;99.90;;;;;;5073632;28;20028;-62
2021/06/17 08:52:29;;;;;;;21.27;14.20;;;29.00;99.90;;;;;;5073322;28;20067;-61
2021/06/17 08:55:19;;;;;;;21.13;13.75;;;28.90;99.90;;;;;;5073166;28;20107;-60
2021/06/17 08:57:47;;;;;;;23.00;14.15;;;29.10;99.90;;;;;;5073632;28;20036;-61
2021/06/17 09:00:16;;;;;;;20.05;13.98;;;29.30;99.90;;;;;;5073172;28;20017;-60
2021/06/17 09:02:44;;;;;;;19.60;14.30;;;29.40;99.90;;;;;;5072838;28;20031;-60
2021/06/17 09:05:16;;;;;;;26.08;14.77;;;29.50;99.90;;;;;;5073181;28;20044;-60
2021/06/17 09:07:45;;;;;;;19.20;14.85;;;29.70;99.90;;;;;;5073481;28;20020;-59
2021/06/17 09:10:11;;;;;;;19.23;14.07;;;29.80;99.90;;;;;;5073123;28;20460;-60
2021/06/17 09:12:48;;;;;;;17.25;14.43;;;29.90;99.90;;;;;;5073735;28;20107;-59
2021/06/17 09:15:14;;;;;;;18.35;15.50;;;29.90;99.90;;;;;;5072983;28;20035;-62
2021/06/17 09:17:40;;;;;;;19.92;15.00;;;30.00;99.90;;;;;;5055581;28;20127;-59
2021/06/17 09:20:09;;;;;;;19.33;15.38;;;30.10;99.50;;;;;;5072609;28;20103;-60
2021/06/17 09:22:35;;;;;;;18.33;14.65;;;30.20;99.80;;;;;;5072940;28;20032;-60
2021/06/17 09:25:01;;;;;;;17.58;14.70;;;30.40;99.60;;;;;;5054709;28;20024;-60
2021/06/17 09:27:30;;;;;;;18.52;14.60;;;30.50;99.60;;;;;;5072951;28;20036;-60
2021/06/17 09:30:09;;;;;;;20.17;14.88;;;30.50;99.60;;;;;;5072882;28;20040;-59
2021/06/17 09:32:34;;;;;;;18.92;15.23;;;30.50;98.90;;;;;;5072875;28;20084;-59
2021/06/17 09:35:00;;;;;;;18.45;15.60;;;30.60;97.90;;;;;;5054963;28;20056;-59
2021/06/17 09:37:34;;;;;;;18.42;15.25;;;30.50;97.90;;;;;;5072549;28;20082;-60
2021/06/17 09:40:25;;;;;;;21.83;14.73;;;30.60;96.90;;;;;;5073528;28;20021;-60
2021/06/17 09:42:53;;;;;;;18.48;15.48;;;30.80;97.10;;;;;;5072454;28;20031;-60
2021/06/17 09:45:21;;;;;;;19.52;16.60;;;30.90;97.00;;;;;;5071590;28;20020;-60
2021/06/17 09:47:47;;;;;;;18.23;15.32;;;31.00;97.20;;;;;;5068377;28;20020;-60
2021/06/17 09:50:21;;;;;;;20.33;15.48;;;31.10;96.20;;;;;;5054303;28;20031;-61
2021/06/17 09:52:48;;;;;;;17.77;14.25;;;31.00;96.20;;;;;;5072439;28;20041;-61
2021/06/17 09:55:33;;;;;;;21.20;14.73;;;31.30;96.40;;;;;;5072600;28;20090;-61
2021/06/17 09:57:59;;;;;;;20.23;14.35;;;31.20;95.60;;;;;;5072753;28;20107;-61
2021/06/17 10:00:25;;;;;;;18.45;14.93;;;31.30;95.90;;;;;;5072211;28;20056;-60
2021/06/17 10:02:50;;;;;;;21.17;15.35;;;31.50;95.80;;;;;;5071162;28;20025;-61
2021/06/17 10:05:19;;;;;;;17.73;14.50;;;31.70;95.90;;;;;;5071346;28;20035;-61
2021/06/17 10:07:46;;;;;;;19.08;15.30;;;31.80;95.70;;;;;;5070810;28;20021;-61
2021/06/17 10:10:14;;;;;;;19.07;14.77;;;31.80;94.90;;;;;;5053899;28;20028;-61
2021/06/17 10:12:41;;;;;;;18.38;15.00;;;31.70;94.70;;;;;;5053449;28;20279;-61
2021/06/17 10:15:07;;;;;;;17.65;14.63;;;31.60;94.20;;;;;;5071682;28;20522;-61
2021/06/17 10:17:33;;;;;;;17.83;14.70;;;31.70;95.10;;;;;;5053740;28;20025;-61
2021/06/17 10:20:01;;;;;;;18.45;14.40;;;31.90;94.20;;;;;;5053771;28;20042;-61
2021/06/17 10:22:28;;;;;;;22.75;14.50;;;31.80;94.10;;;;;;5071948;28;20027;-61
2021/06/17 10:24:55;;;;;;;18.60;15.13;;;31.90;94.10;;;;;;5071547;28;20511;-60
2021/06/17 10:27:30;;;;;;;18.30;14.60;;;32.00;93.60;;;;;;5053693;28;20450;-61
2021/06/17 10:29:56;;;;;;;19.23;14.35;;;32.20;94.30;;;;;;5071651;28;20033;-61
2021/06/17 10:32:34;;;;;;;17.45;14.25;;;32.50;93.70;;;;;;5071531;28;20029;-60
2021/06/17 10:35:00;;;;;;;18.65;15.27;;;32.40;93.20;;;;;;5053272;28;20073;-65
2021/06/17 10:37:48;;;;;;;21.90;15.13;;;32.50;92.80;;;;;;5071678;28;20485;-62
2021/06/17 10:40:13;;;;;;;18.73;13.98;;;32.70;93.60;;;;;;5071963;28;20032;-62
2021/06/17 10:42:39;;;;;;;17.65;14.50;;;32.60;91.10;;;;;;5071509;28;20086;-61
2021/06/17 10:45:10;;;;;;;18.00;14.13;;;32.70;90.50;;;;;;5071204;28;20025;-62
2021/06/17 10:47:43;;;;;;;16.88;13.82;;;32.60;91.00;;;;;;5071051;28;20063;-62
2021/06/17 10:50:21;;;;;;;22.00;14.88;;;32.60;90.90;;;;;;5071227;28;20032;-62
2021/06/17 10:52:52;;;;;;;;;;;32.90;90.80;;;;;;5069575;28;20103;-61
2021/06/17 10:55:20;;;;;;;17.63;14.30;;;33.10;91.00;;;;;;5052425;28;19905;-63
2021/06/17 10:57:50;;;;;;;18.35;14.32;;;33.00;90.70;;;;;;5071041;28;20029;-63
2021/06/17 11:00:22;;;;;;;19.13;15.23;;;33.00;90.80;;;;;;5071084;28;20507;-62
2021/06/17 11:02:56;;;;;;;20.17;14.77;;;33.40;91.30;;;;;;5071076;28;20016;-62
2021/06/17 11:05:38;;;;;;;18.33;15.10;;;33.20;90.50;;;;;;5052824;28;20032;-62
2021/06/17 11:08:23;;;;;;;19.15;14.30;;;33.60;90.40;;;;;;5070020;28;20037;-62
2021/06/17 11:11:08;;;;;;;17.98;14.88;;;33.90;90.20;;;;;;5068400;28;20325;-62
2021/06/17 11:13:41;;;;;;;18.08;14.75;;;33.30;88.80;;;;;;5069087;28;20038;-63
2021/06/17 11:16:27;;;;;;;16.65;14.32;;;33.60;90.00;;;;;;5052111;28;20016;-61
2021/06/17 11:18:58;;;;;;;18.35;14.73;;;34.00;87.90;;;;;;5068412;28;20020;-63
2021/06/17 11:21:25;;;;;;;18.85;15.27;;;34.70;87.50;;;;;;5070529;28;20480;-63
2021/06/17 11:23:56;;;;;;;18.08;14.52;;;35.70;86.60;;;;;;5071113;28;20465;-61
2021/06/17 11:26:44;;;;;;;18.98;14.45;;;35.90;83.20;;;;;;5075112;28;20031;-63
2021/06/17 11:29:12;;;;;;;18.25;14.60;;;37.00;82.90;;;;;;5075652;28;20523;-63
2021/06/17 11:31:39;;;;;;;19.73;14.90;;;36.90;79.50;;;;;;5057173;28;20060;-64
2021/06/17 11:34:06;;;;;;;18.45;14.90;;;36.30;80.30;;;;;;5074891;28;20112;-63
2021/06/17 11:36:32;;;;;;;17.52;14.60;;;36.50;78.50;;;;;;5074696;28;20571;-63
2021/06/17 11:39:03;;;;;;;17.73;14.73;;;37.00;77.20;;;;;;5075125;28;20059;-63
2021/06/17 11:41:31;;;;;;;19.25;14.80;;;37.60;79.00;;;;;;5074891;28;20476;-62
2021/06/17 11:44:07;;;;;;;18.77;15.50;;;38.40;77.40;;;;;;5074971;28;20430;-63
2021/06/17 11:46:38;;;;;;;18.83;16.05;;;38.60;74.50;;;;;;5072661;28;20032;-64
2021/06/17 11:49:08;;;;;;;18.90;15.25;;;39.60;74.30;;;;;;5074029;28;20105;-63
2021/06/17 11:51:43;;;;;;;18.55;14.93;;;39.50;72.80;;;;;;5073332;28;20016;-63
2021/06/17 11:54:09;;;;;;;17.35;14.93;;;40.30;71.80;;;;;;5089923;22;20048;-59
2021/06/17 11:56:35;;;;;;;17.92;14.57;;;40.60;67.70;;;;;;5054912;28;20024;-59
2021/06/17 11:59:20;;;;;;;19.05;14.82;;;40.80;66.50;;;;;;5044868;28;20480;-61
2021/06/17 12:02:01;;;;;;;18.05;14.55;;;39.70;64.80;;;;;;5060994;28;20456;-60
2021/06/17 12:04:45;;;;;;;18.65;15.07;;;39.00;65.10;;;;;;5036330;28;20083;-61
2021/06/17 12:07:11;;;;;;;17.65;14.65;;;40.00;66.80;;;;;;5050213;28;20025;-60
2021/06/17 12:09:38;;;;;;;17.60;15.20;;;;;;;;;;5035835;28;20021;-60
2021/06/17 12:12:24;;;;;;;18.60;15.23;;;;;;;;;;5033342;28;20027;-61
2021/06/17 12:14:51;;;;;;;18.52;15.35;;;;;;;;;;5031694;28;20025;-62
2021/06/17 12:17:37;;;;;;;18.10;15.50;;;;;;;;;;5054202;28;20100;-61
2021/06/17 12:20:10;;;;;;;18.70;15.57;;;42.20;64.80;;;;;;5022873;28;20087;-64
2021/06/17 12:22:41;;;;;;;18.10;15.77;;;42.00;62.70;;;;;;5017080;28;20025;-63
2021/06/17 12:25:07;;;;;;;19.05;15.95;;;;;;;;;;5044885;28;20052;-61
2021/06/17 12:27:33;;;;;;;17.15;14.93;;;;;;;;;;5053758;28;20025;-62
2021/06/17 12:30:18;;;;;;;17.88;14.98;;;;;;;;;;5035573;28;20024;-58
2021/06/17 12:32:46;;;;;;;18.88;15.38;;;;;;;;;;5052860;28;20346;-63
2021/06/17 12:35:13;;;;;;;18.52;14.90;;;;;;;;;;5035673;28;20086;-60
2021/06/17 12:37:52;;;;;;;19.00;15.70;;;;;;;;;;5053293;28;20025;-58
2021/06/17 12:40:27;;;;;;;17.45;15.00;;;;;;;;;;5053845;28;20389;-63
2021/06/17 12:43:25;;;;;;;17.02;14.48;;;;;;;;;;5035486;28;20018;-64
2021/06/17 12:46:08;;;;;;;16.45;14.45;;;;;;;;;;5009501;28;20382;-61
2021/06/17 12:49:11;;;;;;;16.67;14.88;;;;;;;;;;5053765;28;20135;-63
2021/06/17 12:54:09;;;;;;;;;;;;;;;;;;5036336;28;20048;-60
2021/06/17 12:56:36;;;;;;;18.65;14.45;;;;;;;;;;5017605;28;19920;-64
2021/06/17 12:59:01;;;;;;;16.20;13.93;;;41.10;60.60;;;;;;5016152;28;20450;-59
2021/06/17 13:01:44;;;;;;;17.40;14.65;;;;;;;;;;5033779;28;20021;-63
2021/06/17 13:04:14;;;;;;;18.20;15.30;;;;;;;;;;5032795;28;20028;-62
2021/06/17 13:06:39;;;;;;;17.33;14.93;;;43.50;54.30;;;;;;5033612;28;20692;-64
2021/06/17 13:09:22;;;;;;;16.65;14.85;;;42.10;52.60;;;;;;5015186;28;20069;-63
2021/06/17 13:12:04;;;;;;;17.05;15.00;;;42.10;53.30;;;;;;4999641;28;20022;-64
2021/06/17 13:14:30;;;;;;;17.20;14.70;;;42.00;53.50;;;;;;5020275;28;20068;-64
2021/06/17 13:17:03;;;;;;;19.48;15.70;;;42.20;54.10;;;;;;5015122;28;20056;-62
2021/06/17 13:19:29;;;;;;;17.20;14.98;;;42.60;52.80;;;;;;5033059;28;20021;-63